Doris Moran — WRU2125 — position and weather

sailwx.info

Track history (hours):
 
Tides and Currents Weather Stations Pressure Air Temp Water Temp Dewpoint Dewpoint Depression Visibility Wind Speed Wind Dir Waves Ship Positions

Doris Moran

More information available from US FCC via Universal Licensing System and Coast Guard Vessel Documentation Center.

Last reported at 2014-Jul-26 10:33 UTC. Time now 2014-Jul-26 11:14 UTC.
Position N 40°39' W 074°06'.

Length 36 m; draft 15 m.

Type: Other ship. MMSI: 366939790.

Date/timePositionNaut miles runAvg speedWind from/ knotsBaromVisibWave heightAir tempDewpointWater temp
2014-Jul-26 10:33N 40°39' W 074°06'0 0.0
2014-Jul-26 09:33N 40°39' W 074°06'0 0.0
2014-Jul-26 08:33N 40°39' W 074°06'0 0.0
2014-Jul-26 07:33N 40°39' W 074°06'0 0.0
2014-Jul-26 06:33N 40°39' W 074°06'0 0.0
2014-Jul-26 05:33N 40°39' W 074°06'0 0.0
2014-Jul-26 04:33N 40°39' W 074°06'0 0.0
2014-Jul-26 03:33N 40°39' W 074°06'0 0.0
2014-Jul-26 02:33N 40°39' W 074°06'0 0.0
2014-Jul-26 01:33N 40°39' W 074°06'0 0.0
2014-Jul-26 00:33N 40°39' W 074°06'2 1.9
2014-Jul-25 23:33N 40°38' W 074°03'5 4.7
2014-Jul-25 22:33N 40°34' W 074°02'8 7.8
2014-Jul-25 21:29N 40°30' W 073°52'12 9.5
2014-Jul-25 20:15N 40°32' W 073°37'7 9.5
2014-Jul-25 19:33N 40°32' W 073°28'10 9.5
2014-Jul-25 18:29N 40°34' W 073°15'9 9.5
2014-Jul-25 17:33N 40°36' W 073°04'10 9.6
2014-Jul-25 16:32N 40°39' W 072°52'1010.0
2014-Jul-25 15:33N 40°42' W 072°39'1010.3
2014-Jul-25 14:33N 40°46' W 072°27'1010.4
2014-Jul-25 13:33N 40°50' W 072°14'1010.3
2014-Jul-25 12:33N 40°54' W 072°02'1010.2
2014-Jul-25 11:33N 40°58' W 071°50'1110.5
2014-Jul-25 10:33N 41°03' W 071°37'1010.4
2014-Jul-25 09:33N 41°07' W 071°24'1010.3
2014-Jul-25 08:33N 41°15' W 071°16'1010.3
2014-Jul-25 07:33N 41°23' W 071°06'1010.0
2014-Jul-25 06:33N 41°29' W 070°56'12 9.0
2014-Jul-25 05:16N 41°36' W 070°43'10 8.3
2014-Jul-25 04:07N 41°44' W 070°38'29 7.8
2014-Jul-25 00:23N 42°13' W 070°37'  
2014-Jul-22 15:12N 42°20' W 070°58'6 5.1
2014-Jul-22 14:04N 42°23' W 070°52'5 8.0
2014-Jul-22 13:24N 42°21' W 070°45'8 8.7
2014-Jul-22 12:32N 42°15' W 070°38'9 8.8
2014-Jul-22 11:28N 42°07' W 070°31'8 8.6
2014-Jul-22 10:30N 41°59' W 070°29'4 4.7
2014-Jul-22 09:33N 41°55' W 070°28'21 6.9
2014-Jul-22 06:27N 41°36' W 070°42'7 7.5
2014-Jul-22 05:33N 41°31' W 070°48'7 6.3
2014-Jul-22 04:31N 41°28' W 070°56'8 8.0
2014-Jul-22 03:32N 41°24' W 071°05'8 8.3
2014-Jul-22 02:33N 41°20' W 071°14'8 8.1
2014-Jul-22 01:33N 41°18' W 071°25'9 8.7
2014-Jul-22 00:33N 41°18' W 071°36'8 8.5
2014-Jul-21 23:33N 41°16' W 071°47'8 7.7
2014-Jul-21 22:33N 41°15' W 071°57'7 6.7
2014-Jul-21 21:33N 41°14' W 072°06'7 7.0
2014-Jul-21 20:33N 41°12' W 072°15'2 7.6
2014-Jul-21 20:18N 41°11' W 072°17'6 7.8
2014-Jul-21 19:33N 41°10' W 072°25'8 8.0
2014-Jul-21 18:33N 41°08' W 072°35'9 8.6
2014-Jul-21 17:34N 41°06' W 072°46'9 8.9
2014-Jul-21 16:33N 41°03' W 072°58'9 9.2
2014-Jul-21 15:34N 41°02' W 073°10'5 4.8
2014-Jul-21 14:33N 41°01' W 073°16'33 7.9
2014-Jul-21 10:22N 40°47' W 073°55'4 5.0
2014-Jul-21 09:33N 40°43' W 073°58'2 2.4
2014-Jul-21 08:33N 40°44' W 074°01'  
2014-Jul-17 20:33N 40°44' W 074°01'6 6.4
2014-Jul-17 19:33N 40°39' W 074°06'0 0.0
2014-Jul-17 18:33N 40°39' W 074°06'0 0.0
2014-Jul-17 17:33N 40°39' W 074°06'0 0.0
2014-Jul-17 16:33N 40°39' W 074°06'0 0.0
2014-Jul-17 15:33N 40°39' W 074°06'2 1.5
2014-Jul-17 14:31N 40°38' W 074°08'2 0.8
2014-Jul-17 12:33N 40°39' W 074°06'0 0.0
2014-Jul-17 11:33N 40°39' W 074°06'0 0.0
2014-Jul-17 10:33N 40°39' W 074°06'0 0.0
2014-Jul-17 09:33N 40°39' W 074°06'0 0.0
2014-Jul-17 08:33N 40°39' W 074°06'0 0.0
2014-Jul-17 07:33N 40°39' W 074°06'4 4.1
2014-Jul-17 06:33N 40°36' W 074°02'6 5.3
2014-Jul-17 05:31N 40°31' W 073°59'6 6.6
2014-Jul-17 04:33N 40°26' W 073°53'9 8.1
2014-Jul-17 03:29N 40°18' W 073°54'8 8.7
2014-Jul-17 02:33N 40°10' W 073°56'10 9.5
2014-Jul-17 01:32N 40°00' W 073°57'9 9.2
2014-Jul-17 00:33N 39°51' W 073°58'8 8.2
2014-Jul-16 23:33N 39°43' W 073°60'8 8.0
2014-Jul-16 22:33N 39°36' W 074°05'8 7.9
2014-Jul-16 21:33N 39°29' W 074°09'9 7.7
2014-Jul-16 20:24N 39°21' W 074°15'  
Track history (hours):
 
Tides and Currents Weather Stations Pressure Air Temp Water Temp Dewpoint Dewpoint Depression Visibility Wind Speed Wind Dir Waves Ship Positions

Doris Moran

More information available from US FCC via Universal Licensing System and Coast Guard Vessel Documentation Center.

Last reported at 2014-Jul-26 10:33 UTC. Time now 2014-Jul-26 11:14 UTC.
Position N 40°39' W 074°06'.

Length 36 m; draft 15 m.

Type: Other ship. MMSI: 366939790.

Date/timePositionNaut miles runAvg speedWind from/ knotsBaromVisibWave heightAir tempDewpointWater temp
2014-Jul-26 10:33N 40°39' W 074°06'0 0.0
2014-Jul-26 09:33N 40°39' W 074°06'0 0.0
2014-Jul-26 08:33N 40°39' W 074°06'0 0.0
2014-Jul-26 07:33N 40°39' W 074°06'0 0.0
2014-Jul-26 06:33N 40°39' W 074°06'0 0.0
2014-Jul-26 05:33N 40°39' W 074°06'0 0.0
2014-Jul-26 04:33N 40°39' W 074°06'0 0.0
2014-Jul-26 03:33N 40°39' W 074°06'0 0.0
2014-Jul-26 02:33N 40°39' W 074°06'0 0.0
2014-Jul-26 01:33N 40°39' W 074°06'0 0.0
2014-Jul-26 00:33N 40°39' W 074°06'2 1.9
2014-Jul-25 23:33N 40°38' W 074°03'5 4.7
2014-Jul-25 22:33N 40°34' W 074°02'8 7.8
2014-Jul-25 21:29N 40°30' W 073°52'12 9.5
2014-Jul-25 20:15N 40°32' W 073°37'7 9.5
2014-Jul-25 19:33N 40°32' W 073°28'10 9.5
2014-Jul-25 18:29N 40°34' W 073°15'9 9.5
2014-Jul-25 17:33N 40°36' W 073°04'10 9.6
2014-Jul-25 16:32N 40°39' W 072°52'1010.0
2014-Jul-25 15:33N 40°42' W 072°39'1010.3
2014-Jul-25 14:33N 40°46' W 072°27'1010.4
2014-Jul-25 13:33N 40°50' W 072°14'1010.3
2014-Jul-25 12:33N 40°54' W 072°02'1010.2
2014-Jul-25 11:33N 40°58' W 071°50'1110.5
2014-Jul-25 10:33N 41°03' W 071°37'1010.4
2014-Jul-25 09:33N 41°07' W 071°24'1010.3
2014-Jul-25 08:33N 41°15' W 071°16'1010.3
2014-Jul-25 07:33N 41°23' W 071°06'1010.0
2014-Jul-25 06:33N 41°29' W 070°56'12 9.0
2014-Jul-25 05:16N 41°36' W 070°43'10 8.3
2014-Jul-25 04:07N 41°44' W 070°38'29 7.8
2014-Jul-25 00:23N 42°13' W 070°37'  
2014-Jul-22 15:12N 42°20' W 070°58'6 5.1
2014-Jul-22 14:04N 42°23' W 070°52'5 8.0
2014-Jul-22 13:24N 42°21' W 070°45'8 8.7
2014-Jul-22 12:32N 42°15' W 070°38'9 8.8
2014-Jul-22 11:28N 42°07' W 070°31'8 8.6
2014-Jul-22 10:30N 41°59' W 070°29'4 4.7
2014-Jul-22 09:33N 41°55' W 070°28'21 6.9
2014-Jul-22 06:27N 41°36' W 070°42'7 7.5
2014-Jul-22 05:33N 41°31' W 070°48'7 6.3
2014-Jul-22 04:31N 41°28' W 070°56'8 8.0
2014-Jul-22 03:32N 41°24' W 071°05'8 8.3
2014-Jul-22 02:33N 41°20' W 071°14'8 8.1
2014-Jul-22 01:33N 41°18' W 071°25'9 8.7
2014-Jul-22 00:33N 41°18' W 071°36'8 8.5
2014-Jul-21 23:33N 41°16' W 071°47'8 7.7
2014-Jul-21 22:33N 41°15' W 071°57'7 6.7
2014-Jul-21 21:33N 41°14' W 072°06'7 7.0
2014-Jul-21 20:33N 41°12' W 072°15'2 7.6
2014-Jul-21 20:18N 41°11' W 072°17'6 7.8
2014-Jul-21 19:33N 41°10' W 072°25'8 8.0
2014-Jul-21 18:33N 41°08' W 072°35'9 8.6
2014-Jul-21 17:34N 41°06' W 072°46'9 8.9
2014-Jul-21 16:33N 41°03' W 072°58'9 9.2
2014-Jul-21 15:34N 41°02' W 073°10'5 4.8
2014-Jul-21 14:33N 41°01' W 073°16'33 7.9
2014-Jul-21 10:22N 40°47' W 073°55'4 5.0
2014-Jul-21 09:33N 40°43' W 073°58'2 2.4
2014-Jul-21 08:33N 40°44' W 074°01'  
2014-Jul-17 20:33N 40°44' W 074°01'6 6.4
2014-Jul-17 19:33N 40°39' W 074°06'0 0.0
2014-Jul-17 18:33N 40°39' W 074°06'0 0.0
2014-Jul-17 17:33N 40°39' W 074°06'0 0.0
2014-Jul-17 16:33N 40°39' W 074°06'0 0.0
2014-Jul-17 15:33N 40°39' W 074°06'2 1.5
2014-Jul-17 14:31N 40°38' W 074°08'2 0.8
2014-Jul-17 12:33N 40°39' W 074°06'0 0.0
2014-Jul-17 11:33N 40°39' W 074°06'0 0.0
2014-Jul-17 10:33N 40°39' W 074°06'0 0.0
2014-Jul-17 09:33N 40°39' W 074°06'0 0.0
2014-Jul-17 08:33N 40°39' W 074°06'0 0.0
2014-Jul-17 07:33N 40°39' W 074°06'4 4.1
2014-Jul-17 06:33N 40°36' W 074°02'6 5.3
2014-Jul-17 05:31N 40°31' W 073°59'6 6.6
2014-Jul-17 04:33N 40°26' W 073°53'9 8.1
2014-Jul-17 03:29N 40°18' W 073°54'8 8.7
2014-Jul-17 02:33N 40°10' W 073°56'10 9.5
2014-Jul-17 01:32N 40°00' W 073°57'9 9.2
2014-Jul-17 00:33N 39°51' W 073°58'8 8.2
2014-Jul-16 23:33N 39°43' W 073°60'8 8.0
2014-Jul-16 22:33N 39°36' W 074°05'8 7.9
2014-Jul-16 21:33N 39°29' W 074°09'9 7.7
2014-Jul-16 20:24N 39°21' W 074°15'  

Dump ship's entire track history